Portada
METAR-TAF:

METAR-TAF

Aeroports :

Aktau, Kazakhstan

latitud: 43-52-12N, longitud: 051-06E, altitud: 22 m

Observació

L'informe es va fer fa 39 minuts, a les 08:00 UTC
Vent 10 kt del Sud-Est
Temperatura 12°C
Humitat 44%
Pressió 1027 hPa
Visibilitat 10 km o més
sense núvols per sota de 1500 mi sense presència de cumulonimbus.

METAR: UATE 120800Z 13005MPS CAVOK 12/00 Q1027 R12/0///70 NOSIG RMK QFE768/1024

Hora: 13:39 (08:39 UTC)

Pronòstic

L'informe es va fer fa 3 hores i 30 minuts, a les 05:09 UTC
Pronòstic vàlid del 12 a les 06 UTC al 13 a les 06 UTC
Vent 14 kt del Sud/Sud-Est
Visibilitat 10 km o més
sense núvols per sota de 1500 mi sense presència de cumulonimbus.
Evolucionant progressivament
l' 12 a les 12 UTC al 12 a les 14 UTC
Vent 10 kt del Est/Nord-Est

TAF: UATE 120509Z 1206/1306 15007MPS CAVOK TX17/1209Z TN01/1302Z BECMG 1212/1214 06005MPS

Observacions i pronòstics meteorològics de més de 4000 aeroports (METAR i TAF).

Les estacions disponibles són els punts grocs i vermells al mapa.

Posi el ratolí al punt desitjat per veure el nom de l'estació.

Feu clic per veure les observacions i els pronòstics meteorològics.

Per canviar el mapa: feu clic els botons verds amb una creu de color negre per apropar; al botó verd amb un guió per allunyar la imatge; o en les fletxes verdes per a mapes adjacents.


METAR-TAF: